Diciembre 2004

Fecha / Hora Temperatura (*F) Dew Point (*F) Humedad Relativa (%)
12/1/2004 0:25 45.38 12.32 25.7
12/1/2004 0:55 45.38 11.52 24.8
12/1/2004 1:25 45.38 12.32 25.7
12/1/2004 1:55 45.38 13.92 27.6
12/1/2004 2:25 45.38 13.18 26.7
12/1/2004 2:55 43.92 12.26 27.1
12/1/2004 3:25 43.19 9.66 24.8
12/1/2004 3:55 43.19 8.46 23.5
12/1/2004 4:25 42.46 7.84 23.5
12/1/2004 4:55 43.19 7.98 23
12/1/2004 5:25 43.19 9.66 24.8
12/1/2004 5:55 42.46 9.02 24.8
12/1/2004 6:25 42.46 8.66 24.4
12/1/2004 6:55 42.46 7.84 23.5
12/1/2004 7:25 43.92 7.32 21.7
12/1/2004 7:55 46.1 7.36 20
12/1/2004 8:25 48.25 8.12 19.1
12/1/2004 8:55 50.38 6.78 16.6
12/1/2004 9:25 51.08 7.36 16.6
12/1/2004 9:55 52.49 12.66 20
12/1/2004 10:25 53.19 17.78 24.4
12/1/2004 10:55 53.19 17.3 23.9
12/1/2004 11:25 54.58 18.1 23.5
12/1/2004 11:55 55.28 16.84 21.7
12/1/2004 12:25 56.66 15.08 19.1
12/1/2004 12:55 57.35 15.16 18.7
12/1/2004 13:25 58.04 15.72 18.7
12/1/2004 13:55 57.35 15.16 18.7
12/1/2004 14:25 57.35 16.7 20
12/1/2004 14:55 56.66 16.12 20
12/1/2004 15:25 55.97 18.78 23
12/1/2004 15:55 54.58 18.1 23.5
12/1/2004 16:25 52.49 19.28 26.7
12/1/2004 16:55 50.38 20.48 30.4
12/1/2004 17:25 49.67 21 31.9
12/1/2004 17:55 48.96 19.64 30.9
12/1/2004 18:25 48.25 18.32 30
12/1/2004 18:55 47.53 16.92 29
12/1/2004 19:25 46.82 17.08 30
12/1/2004 19:55 46.1 17.14 30.9
12/1/2004 20:25 46.1 18.58 32.9
12/1/2004 20:55 44.65 20.54 37.8
12/1/2004 21:25 44.65 21.46 39.3
12/1/2004 21:55 44.65 21.46 39.3
12/1/2004 22:25 44.65 23.2 42.3
12/1/2004 22:55 43.92 24.22 45.4
12/1/2004 23:25 44.65 26.96 49.5
12/1/2004 23:55 44.65 26.96 49.5
12/2/2004 0:25 43.92 26.82 50.6
12/2/2004 0:55 43.19 26.38 51.1
12/2/2004 1:25 43.19 25.9 50.1
12/2/2004 1:55 43.92 25.04 47
12/2/2004 2:25 43.92 24.22 45.4
12/2/2004 2:55 43.19 23.8 45.9
12/2/2004 3:25 43.92 22.54 42.3
12/2/2004 3:55 43.19 20.74 40.3
12/2/2004 4:25 43.92 22.26 41.8
12/2/2004 4:55 43.92 21.4 40.3
12/2/2004 5:25 43.92 21.96 41.3
12/2/2004 5:55 42.46 20.08 40.3
12/2/2004 6:25 43.19 14.22 30.4
12/2/2004 6:55 43.92 9.08 23.5
12/2/2004 7:25 45.38 5.74 19.1
12/2/2004 7:55 46.82 6 18.3
12/2/2004 8:25 48.96 4 15.4
12/2/2004 8:55 52.49 0.74 11.6
12/2/2004 9:25 53.89 2.56 12
12/2/2004 9:55 54.58 2.38 11.6
12/2/2004 10:25 55.28 5.54 13.1
12/2/2004 10:55 55.97 9.08 15
12/2/2004 11:25 56.66 7.94 13.9
12/2/2004 11:55 57.35 8.5 13.9
12/2/2004 12:25 58.04 7.06 12.7
12/2/2004 12:55 58.73 7.6 12.7
12/2/2004 13:25 58.04 7.06 12.7
12/2/2004 13:55 58.04 10.74 15
12/2/2004 14:25 57.35 10.78 15.4
12/2/2004 14:55 56.66 14.58 18.7
12/2/2004 15:25 55.28 15.88 20.8
12/2/2004 15:55 53.89 15.68 21.7
12/2/2004 16:25 52.49 18.84 26.2
12/2/2004 16:55 51.08 20.8 30
12/2/2004 17:25 50.38 21.24 31.4
12/2/2004 17:55 49.67 23.06 34.8
12/2/2004 18:25 48.96 23.1 35.8
12/2/2004 18:55 48.96 23.42 36.3
12/2/2004 19:25 48.25 24.06 38.3
12/2/2004 19:55 48.96 26.52 41.3
12/2/2004 20:25 48.25 25.88 41.3
12/2/2004 20:55 48.25 27.06 43.4
12/2/2004 21:25 48.25 27.34 43.9
12/2/2004 21:55 47.53 26.7 43.9
12/2/2004 22:25 46.82 23.7 39.8
12/2/2004 22:55 47.53 21.84 35.8
12/2/2004 23:25 46.1 20.56 35.8
12/2/2004 23:55 46.82 21.2 35.8
12/3/2004 0:25 46.82 18.86 32.4
12/3/2004 0:55 47.53 16.2 28.1
12/3/2004 1:25 47.53 12.98 24.4
12/3/2004 1:55 46.82 12.38 24.4
12/3/2004 2:25 47.53 11.66 23
12/3/2004 2:55 47.53 12.14 23.5
12/3/2004 3:25 47.53 12.14 23.5
12/3/2004 3:55 47.53 12.52 23.9
12/3/2004 4:25 47.53 12.52 23.9
12/3/2004 4:55 46.82 11.92 23.9
12/3/2004 5:25 46.1 12.14 24.8
12/3/2004 5:55 46.1 12.14 24.8
12/3/2004 6:25 46.82 11.92 23.9
12/3/2004 6:55 46.1 12.14 24.8
12/3/2004 7:25 45.38 12.76 26.2
12/3/2004 7:55 46.82 11.92 23.9
12/3/2004 8:25 48.25 12.74 23.5
12/3/2004 8:55 49.67 12.56 22.1
12/3/2004 9:25 50.38 11.78 20.8
12/3/2004 9:55 51.79 12.08 20
12/3/2004 10:25 52.49 11.16 18.7
12/3/2004 10:55 53.19 13.24 20
12/3/2004 11:25 53.19 12.2 19.1
12/3/2004 11:55 53.19 15.1 21.7
12/3/2004 12:25 53.89 18.76 24.8
12/3/2004 12:55 54.58 21.08 26.7
12/3/2004 13:25 53.89 21.68 28.1
12/3/2004 13:55 53.19 24.08 31.9
12/3/2004 14:25 53.19 23.7 31.4
12/3/2004 14:55 53.19 23.7 31.4
12/3/2004 15:25 52.49 24.48 33.3
12/3/2004 15:55 52.49 24.48 33.3
12/3/2004 16:25 51.79 24.92 34.8
12/3/2004 16:55 50.38 25.02 36.8
12/3/2004 17:25 49.67 25.96 39.3
12/3/2004 17:55 49.67 27.16 41.3
12/3/2004 18:25 49.67 28.36 43.4
12/3/2004 18:55 49.67 29.72 45.9
12/3/2004 19:25 48.96 30.16 48
12/3/2004 19:55 48.96 29.92 47.5
12/3/2004 20:25 49.67 30.82 48
12/3/2004 20:55 49.67 29.72 45.9
12/3/2004 21:25 49.67 29.72 45.9
12/3/2004 21:55 49.67 30.56 47.5
12/3/2004 22:25 48.96 29.66 47
12/3/2004 22:55 48.96 30.16 48
12/3/2004 23:25 48.96 29.92 47.5
12/3/2004 23:55 49.67 30.82 48
12/4/2004 0:25 48.96 30.42 48.5
12/4/2004 0:55 49.67 30.3 47
12/4/2004 1:25 50.38 27.8 41.3
12/4/2004 1:55 48.25 37.1 65.1
12/4/2004 2:25 48.96 35.66 59.9
12/4/2004 2:55 48.96 35.88 60.4
12/4/2004 3:25 48.96 36.94 63
12/4/2004 3:55 48.25 39.38 71.2
12/4/2004 4:25 48.25 41.08 76.1
12/4/2004 4:55 48.25 42.18 79.4
12/4/2004 5:25 47.53 41.5 79.4
12/4/2004 5:55 46.82 42 83.2
12/4/2004 6:25 46.82 41.68 82.2
12/4/2004 6:55 46.82 41.56 81.8
12/4/2004 7:25 46.82 42.28 84.1
12/4/2004 7:55 46.82 41.68 82.2
12/4/2004 8:25 47.53 42.26 81.8
12/4/2004 8:55 48.25 42.06 79
12/4/2004 9:25 48.25 41.56 77.5
12/4/2004 9:55 48.96 42.08 77
12/4/2004 10:25 50.38 42.28 73.6
12/4/2004 10:55 50.38 42.98 75.6
12/4/2004 11:25 51.08 43.14 74.1
12/4/2004 11:55 51.79 44.68 76.6
12/4/2004 12:25 51.08 44.94 79.4
12/4/2004 12:55 53.19 45.16 74.1
12/4/2004 13:25 52.49 45.2 76.1
12/4/2004 13:55 51.08 46.18 83.2
12/4/2004 14:25 48.96 46.92 92.6
12/4/2004 14:55 47.53 46.9 97.6
12/4/2004 15:25 48.25 48.14 99.6
12/4/2004 15:55 48.25 47.5 97.2
12/4/2004 16:25 48.25 47.3 96.5
12/4/2004 16:55 47.53 46.48 96.1
12/4/2004 17:25 46.82 45.96 96.8
12/4/2004 17:55 46.82 45.96 96.8
12/4/2004 18:25 46.1 44.74 95
12/4/2004 18:55 46.1 45.24 96.8
12/4/2004 19:25 45.38 44.74 97.6
12/4/2004 19:55 45.38 44.64 97.2
12/4/2004 20:25 44.65 44.1 97.9
12/4/2004 20:55 43.92 43.48 98.3
12/4/2004 21:25 43.92 43.56 98.6
12/4/2004 21:55 43.92 43.66 99
12/4/2004 22:25 43.92 43.82 99.6
12/4/2004 22:55 45.38 45.38 101
12/4/2004 23:25 45.38 45.38 101
12/4/2004 23:55 45.38 45.38 101
12/5/2004 0:25 45.38 45.38 101.3
12/5/2004 0:55 44.65 44.66 101.6
12/5/2004 1:25 43.92 43.92 101.3
12/5/2004 1:55 43.92 43.92 101.6
12/5/2004 2:25 43.92 43.92 101.6
12/5/2004 2:55 43.19 43.2 101.6
12/5/2004 3:25 42.46 42.46 101.6
12/5/2004 3:55 41.72 41.72 101.6
12/5/2004 4:25 41.72 41.72 101.6
12/5/2004 4:55 40.97 40.98 101.6
12/5/2004 5:25 41.72 41.72 101.6
12/5/2004 5:55 41.72 41.72 101.6
12/5/2004 6:25 41.72 41.72 101.6
12/5/2004 6:55 42.46 42.46 101.6
12/5/2004 7:25 41.72 41.72 101.9
12/5/2004 7:55 42.46 42.46 101.6
12/5/2004 8:25 43.92 43.92 101.9
12/5/2004 8:55 46.82 46.82 101.3
12/5/2004 9:25 47.53 47.54 101
12/5/2004 9:55 48.96 48.7 99
12/5/2004 10:25 49.67 48.3 95
12/5/2004 10:55 50.38 46.58 86.7
12/5/2004 11:25 53.19 47.16 79.9
12/5/2004 11:55 51.79 45.8 79.9
12/5/2004 12:25 51.08 44.94 79.4
12/5/2004 12:55 51.08 45.56 81.3
12/5/2004 13:25 50.38 46.32 85.9
12/5/2004 13:55 50.38 46.32 85.9
12/5/2004 14:25 48.96 46.68 91.8
12/5/2004 14:55 48.96 48.02 96.5
12/5/2004 15:25 42.46 41.9 97.9
12/5/2004 15:55 43.19 43.08 99.6
12/5/2004 16:25 43.19 43.08 99.6
12/5/2004 16:55 43.19 43.2 100.3
12/5/2004 17:25 43.19 43.2 101.6
12/5/2004 17:55 43.19 43.2 101.9
12/5/2004 18:25 43.19 43.2 101.9
12/5/2004 18:55 43.19 43.2 102.2
12/5/2004 19:25 43.19 43.2 102.2
12/5/2004 19:55 43.19 43.2 102.5
12/5/2004 20:25 43.19 43.2 102.5
12/5/2004 20:55 43.92 43.92 102.8
12/5/2004 21:25 43.92 43.92 102.5
12/5/2004 21:55 43.92 43.92 102.5
12/5/2004 22:25 43.92 43.92 102.8
12/5/2004 22:55 44.65 44.66 102.5
12/5/2004 23:25 44.65 44.66 102.2
12/5/2004 23:55 43.92 43.92 102.2
12/6/2004 0:25 43.19 43.2 102.2
12/6/2004 0:55 43.19 43.2 101.9
12/6/2004 1:25 42.46 42.46 102.2
12/6/2004 1:55 42.46 42.46 102.2
12/6/2004 2:25 42.46 42.46 102.2
12/6/2004 2:55 41.72 41.72 102.2
12/6/2004 3:25 42.46 42.46 101.9
12/6/2004 3:55 41.72 41.72 102.2
12/6/2004 4:25 41.72 41.72 102.2
12/6/2004 4:55 40.23 40.22 102.2
12/6/2004 5:25 41.72 41.72 102.2
12/6/2004 5:55 42.46 42.46 102.5
12/6/2004 6:25 42.46 42.46 102.2
12/6/2004 6:55 43.19 43.2 102.2
12/6/2004 7:25 43.92 43.92 102.2
12/6/2004 7:55 45.38 45.38 102.2
12/6/2004 8:25 46.1 46.1 102.2
12/6/2004 8:55 48.25 48.24 102.2
12/6/2004 9:25 48.96 48.96 101.3
12/6/2004 9:55 51.79 51.78 100
12/6/2004 10:25 51.79 51.02 97.2
12/6/2004 10:55 53.19 49.6 87.6
12/6/2004 11:25 53.89 48.6 82.2
12/6/2004 11:55 55.97 48.2 75.1
12/6/2004 12:25 57.35 49 73.6
12/6/2004 12:55 55.97 48.38 75.6
12/6/2004 13:25 58.04 47.6 68.1
12/6/2004 13:55 58.04 47.98 69.1
12/6/2004 14:25 58.73 45.34 61
12/6/2004 14:55 57.35 47.14 68.6
12/6/2004 15:25 57.35 46.94 68.1
12/6/2004 15:55 55.28 48.88 79
12/6/2004 16:25 55.97 48.38 75.6
12/6/2004 16:55 54.58 50.16 85
12/6/2004 17:25 53.19 50.12 89.3
12/6/2004 17:55 52.49 50.06 91.4
12/6/2004 18:25 52.49 50.52 93
12/6/2004 18:55 51.79 49.94 93.4
12/6/2004 19:25 51.79 49.84 93
12/6/2004 19:55 51.08 49.48 94.2
12/6/2004 20:25 50.38 49 95
12/6/2004 20:55 48.96 47.6 95
12/6/2004 21:25 48.25 46.96 95.3
12/6/2004 21:55 46.82 45.88 96.5
12/6/2004 22:25 46.1 45.54 97.9
12/6/2004 22:55 46.1 45.54 97.9
12/6/2004 23:25 45.38 44.82 97.9
12/6/2004 23:55 44.65 44.2 98.3
12/7/2004 0:25 43.92 43.48 98.3
12/7/2004 0:55 45.38 45.38 100
12/7/2004 1:25 44.65 44.66 101.3
12/7/2004 1:55 43.92 43.92 101
12/7/2004 2:25 42.46 42.46 101
12/7/2004 2:55 42.46 42.46 101
12/7/2004 3:25 41.72 41.72 101
12/7/2004 3:55 41.72 41.72 101
12/7/2004 4:25 40.97 40.98 101
12/7/2004 4:55 40.97 40.98 101
12/7/2004 5:25 40.97 40.98 101
12/7/2004 5:55 40.23 40.22 101
12/7/2004 6:25 40.23 40.22 101
12/7/2004 6:55 40.23 40.22 101
12/7/2004 7:25 40.97 40.98 101
12/7/2004 7:55 43.19 43.2 101
12/7/2004 8:25 46.82 46.82 101
12/7/2004 8:55 50.38 49 95
12/7/2004 9:25 53.19 45.52 75.1
12/7/2004 9:55 53.89 45.84 74.1
12/7/2004 10:25 54.58 44.28 68.1
12/7/2004 10:55 55.97 45.02 66.6
12/7/2004 11:25 55.97 44.84 66.1
12/7/2004 11:55 56.66 44.02 62.5
12/7/2004 12:25 58.04 44.68 61
12/7/2004 12:55 58.04 43.78 58.9
12/7/2004 13:25 58.04 44.22 59.9
12/7/2004 13:55 57.35 45.74 65.1
12/7/2004 14:25 57.35 44.88 63
12/7/2004 14:55 56.66 45.5 66.1
12/7/2004 15:25 56.66 45.5 66.1
12/7/2004 15:55 55.97 44.44 65.1
12/7/2004 16:25 55.28 42.92 63
12/7/2004 16:55 53.89 43.04 66.6
12/7/2004 17:25 51.79 43.82 74.1
12/7/2004 17:55 50.38 44.12 79
12/7/2004 18:25 48.96 45.06 86.3
12/7/2004 18:55 48.96 44.66 85
12/7/2004 19:25 48.25 44.62 87.2
12/7/2004 19:55 48.25 44.62 87.2
12/7/2004 20:25 48.96 45.18 86.7
12/7/2004 20:55 48.96 45.96 89.3
12/7/2004 21:25 48.25 45.74 91
12/7/2004 21:55 48.25 46.1 92.2
12/7/2004 22:25 46.82 44.8 92.6
12/7/2004 22:55 45.38 44.04 95
12/7/2004 23:25 43.92 42.78 95.7
12/7/2004 23:55 43.19 42.34 96.8
12/8/2004 0:25 43.19 42.46 97.2
12/8/2004 0:55 42.46 41.72 97.2
12/8/2004 1:25 41.72 40.98 97.2
12/8/2004 1:55 41.72 41.08 97.6
12/8/2004 2:25 40.97 40.34 97.6
12/8/2004 2:55 40.97 40.42 97.9
12/8/2004 3:25 40.23 39.6 97.6
12/8/2004 3:55 40.23 39.68 97.9
12/8/2004 4:25 40.23 39.68 97.9
12/8/2004 4:55 40.97 40.54 98.3
12/8/2004 5:25 43.92 43.56 98.6
12/8/2004 5:55 41.72 40.98 97.2
12/8/2004 6:25 40.97 40.34 97.6
12/8/2004 6:55 40.23 39.5 97.2
12/8/2004 7:25 40.23 39.6 97.6
12/8/2004 7:55 45.38 42.3 88.9
12/8/2004 8:25 50.38 42.8 75.1
12/8/2004 8:55 53.89 43.62 68.1
12/8/2004 9:25 56.66 44.68 64.1
12/8/2004 9:55 57.35 44.46 62
12/8/2004 10:25 59.42 43.42 55.3
12/8/2004 10:55 61.48 42.18 49
12/8/2004 11:25 62.85 42.02 46.4
12/8/2004 11:55 64.91 43.32 45.4
12/8/2004 12:25 66.28 41.46 40.3
12/8/2004 12:55 66.28 38.78 36.3
12/8/2004 13:25 66.96 40.76 38.3
12/8/2004 13:55 66.96 39.74 36.8
12/8/2004 14:25 66.96 40.76 38.3
12/8/2004 14:55 66.96 40.76 38.3
12/8/2004 15:25 66.28 40.82 39.3
12/8/2004 15:55 65.59 39.88 38.8
12/8/2004 16:25 65.59 40.84 40.3
12/8/2004 16:55 62.17 44.4 52.1
12/8/2004 17:25 59.42 47.04 63.5
12/8/2004 17:55 58.73 49.02 70.1
12/8/2004 18:25 57.35 49.18 74.1
12/8/2004 18:55 56.66 49.4 76.6
12/8/2004 19:25 56.66 49.54 77
12/8/2004 19:55 54.58 50.02 84.5
12/8/2004 20:25 55.97 50.04 80.4
12/8/2004 20:55 55.97 50.62 82.2
12/8/2004 21:25 55.28 50.28 83.2
12/8/2004 21:55 52.49 49.2 88.5
12/8/2004 22:25 52.49 48.64 86.7
12/8/2004 22:55 51.08 46.74 85
12/8/2004 23:25 52.49 46.48 79.9
12/8/2004 23:55 52.49 45.02 75.6
12/9/2004 0:25 54.58 44.48 68.6
12/9/2004 0:55 54.58 42.72 64.1
12/9/2004 1:25 53.89 44 69.1
12/9/2004 1:55 53.89 43.62 68.1
12/9/2004 2:25 55.28 43.12 63.5
12/9/2004 2:55 53.89 42.84 66.1
12/9/2004 3:25 53.89 43.44 67.6
12/9/2004 3:55 53.89 43.04 66.6
12/9/2004 4:25 54.58 42.92 64.6
12/9/2004 4:55 53.89 43.62 68.1
12/9/2004 5:25 54.58 43.7 66.6
12/9/2004 5:55 53.89 43.62 68.1
12/9/2004 6:25 53.89 44 69.1
12/9/2004 6:55 53.89 43.24 67.1
12/9/2004 7:25 53.89 43.24 67.1
12/9/2004 7:55 55.28 43.36 64.1
12/9/2004 8:25 57.35 44.26 61.5
12/9/2004 8:55 59.42 44.34 57.3
12/9/2004 9:25 61.48 45.04 54.7
12/9/2004 9:55 61.48 46.26 57.3
12/9/2004 10:25 62.17 45.68 54.7
12/9/2004 10:55 62.85 47.32 56.8
12/9/2004 11:25 64.22 47.6 54.7
12/9/2004 11:55 64.22 47.88 55.3
12/9/2004 12:25 64.22 48.82 57.3
12/9/2004 12:55 64.91 47.74 53.7
12/9/2004 13:25 64.22 46.86 53.2
12/9/2004 13:55 63.54 46.46 53.7
12/9/2004 14:25 63.54 44.9 50.6
12/9/2004 14:55 62.85 45.04 52.1
12/9/2004 15:25 62.17 44.4 52.1
12/9/2004 15:55 62.17 44.7 52.7
12/9/2004 16:25 60.8 44.7 55.3
12/9/2004 16:55 59.42 46.62 62.5
12/9/2004 17:25 58.04 47 66.6
12/9/2004 17:55 57.35 47.94 70.7
12/9/2004 18:25 56.66 48.16 73.1
12/9/2004 18:55 56.66 49.06 75.6
12/9/2004 19:25 56.66 48.7 74.6
12/9/2004 19:55 58.04 47.78 68.6
12/9/2004 20:25 58.04 47.2 67.1
12/9/2004 20:55 57.35 46.14 66.1
12/9/2004 21:25 56.66 46.08 67.6
12/9/2004 21:55 58.73 44.64 59.4
12/9/2004 22:25 58.73 46.18 63
12/9/2004 22:55 58.73 45.98 62.5
12/9/2004 23:25 58.73 45.34 61
12/9/2004 23:55 58.04 44.42 60.4
12/10/2004 0:25 59.42 43.88 56.3
12/10/2004 0:55 59.42 44.34 57.3
12/10/2004 1:25 59.42 44.34 57.3
12/10/2004 1:55 58.73 44.42 58.9
12/10/2004 2:25 58.73 44.86 59.9
12/10/2004 2:55 59.42 44.12 56.8
12/10/2004 3:25 58.04 45.12 62
12/10/2004 3:55 57.35 44.88 63
12/10/2004 4:25 58.73 43.7 57.3
12/10/2004 4:55 58.73 43 55.8
12/10/2004 5:25 58.73 42.78 55.3
12/10/2004 5:55 58.73 42.48 54.7
12/10/2004 6:25 59.42 42.4 53.2
12/10/2004 6:55 58.04 43.32 57.9
12/10/2004 7:25 58.04 43.54 58.4
12/10/2004 7:55 58.04 43.32 57.9
12/10/2004 8:25 60.11 42.8 52.7
12/10/2004 8:55 62.17 41.38 46.4
12/10/2004 9:25 63.54 41.2 43.9
12/10/2004 9:55 64.91 40.24 40.3
12/10/2004 10:25 66.28 39.12 36.8
12/10/2004 10:55 68.33 38.76 33.8
12/10/2004 11:25 69.02 38.28 32.4
12/10/2004 11:55 70.39 37.86 30.4
12/10/2004 12:25 71.08 37.26 29
12/10/2004 12:55 71.77 37.4 28.5
12/10/2004 13:25 71.08 38.46 30.4
12/10/2004 13:55 71.77 39.04 30.4
12/10/2004 14:25 71.08 39.28 31.4
12/10/2004 14:55 70.39 39.08 31.9
12/10/2004 15:25 70.39 39.48 32.4
12/10/2004 15:55 69.71 38.48 31.9
12/10/2004 16:25 68.33 41.3 37.3
12/10/2004 16:55 66.28 39.46 37.3
12/10/2004 17:25 66.28 37.7 34.8
12/10/2004 17:55 65.59 36.36 33.8
12/10/2004 18:25 65.59 36.36 33.8
12/10/2004 18:55 64.91 38.26 37.3
12/10/2004 19:25 62.17 39.02 42.3
12/10/2004 19:55 63.54 38.68 39.8
12/10/2004 20:25 64.22 37.98 37.8
12/10/2004 20:55 64.22 34.48 32.9
12/10/2004 21:25 64.91 35.08 32.9
12/10/2004 21:55 64.22 35.9 34.8
12/10/2004 22:25 64.91 34.7 32.4
12/10/2004 22:55 64.91 35.38 33.3
12/10/2004 23:25 65.59 33.38 30
12/10/2004 23:55 64.91 32.78 30
12/11/2004 0:25 64.91 32.36 29.5
12/11/2004 0:55 64.91 30.72 27.6
12/11/2004 1:25 64.91 30.28 27.1
12/11/2004 1:55 65.59 31.3 27.6
12/11/2004 2:25 64.22 31.78 29.5
12/11/2004 2:55 62.85 32.52 31.9
12/11/2004 3:25 62.85 32.52 31.9
12/11/2004 3:55 60.8 34.26 36.8
12/11/2004 4:25 61.48 34.88 36.8
12/11/2004 4:55 60.8 33.92 36.3
12/11/2004 5:25 61.48 34.54 36.3
12/11/2004 5:55 62.17 34.08 34.8
12/11/2004 6:25 62.17 34.8 35.8
12/11/2004 6:55 60.8 36.24 39.8
12/11/2004 7:25 60.11 36.56 41.3
12/11/2004 7:55 62.85 35.4 35.8
12/11/2004 8:25 64.91 35.76 33.8
12/11/2004 8:55 66.96 34.56 30
12/11/2004 9:25 68.33 34.46 28.5
12/11/2004 9:55 69.71 35.64 28.5
12/11/2004 10:25 70.39 34.12 26.2
12/11/2004 10:55 71.77 36.12 27.1
12/11/2004 11:25 73.15 36.46 26.2
12/11/2004 11:55 73.84 35.24 24.4
12/11/2004 12:25 74.53 35.3 23.9
12/11/2004 12:55 74.53 35.82 24.4
12/11/2004 13:25 74.53 35.3 23.9
12/11/2004 13:55 74.53 34.34 23
12/11/2004 14:25 74.53 34.34 23
12/11/2004 14:55 74.53 35.3 23.9
12/11/2004 15:25 73.15 34.66 24.4
12/11/2004 15:55 72.46 36.34 26.7
12/11/2004 16:25 70.39 36.22 28.5
12/11/2004 16:55 67.65 37.48 32.9
12/11/2004 17:25 65.59 37.82 35.8
12/11/2004 17:55 64.91 38.26 37.3
12/11/2004 18:25 64.22 38.32 38.3
12/11/2004 18:55 63.54 37.7 38.3
12/11/2004 19:25 63.54 38.36 39.3
12/11/2004 19:55 62.85 38.4 40.3
12/11/2004 20:25 62.17 38.1 40.8
12/11/2004 20:55 62.17 37.78 40.3
12/11/2004 21:25 62.17 38.1 40.8
12/11/2004 21:55 62.17 38.4 41.3
12/11/2004 22:25 62.17 38.4 41.3
12/11/2004 22:55 60.8 38.14 42.9
12/11/2004 23:25 60.11 38.68 44.9
12/11/2004 23:55 58.73 39.92 49.5
12/12/2004 0:25 59.42 38.88 46.4
12/12/2004 0:55 58.73 38.58 47
12/12/2004 1:25 58.73 37.98 45.9
12/12/2004 1:55 58.04 38.76 48.5
12/12/2004 2:25 58.73 36.56 43.4
12/12/2004 2:55 59.42 36.24 41.8
12/12/2004 3:25 59.42 36.24 41.8
12/12/2004 3:55 59.42 36.9 42.9
12/12/2004 4:25 54.58 39.36 56.3
12/12/2004 4:55 53.19 40.32 61.5
12/12/2004 5:25 51.79 40.86 66.1
12/12/2004 5:55 51.08 40.94 68.1
12/12/2004 6:25 49.67 41.6 73.6
12/12/2004 6:55 53.89 37.04 52.7
12/12/2004 7:25 55.28 37.04 50.1
12/12/2004 7:55 60.11 36.56 41.3
12/12/2004 8:25 62.85 35.04 35.3
12/12/2004 8:55 64.91 37.92 36.8
12/12/2004 9:25 67.65 36.3 31.4
12/12/2004 9:55 69.71 37.26 30.4
12/12/2004 10:25 71.08 34.7 26.2
12/12/2004 10:55 72.46 34.98 25.3
12/12/2004 11:25 73.84 35.24 24.4
12/12/2004 11:55 74.53 34.88 23.5
12/12/2004 12:25 77.31 33.66 20.4
12/12/2004 12:55 77.31 35.66 22.1
12/12/2004 13:25 78.01 35.32 21.3
12/12/2004 13:55 78.01 36.24 22.1
12/12/2004 14:25 78.01 37.26 23
12/12/2004 14:55 77.31 38.16 24.4
12/12/2004 15:25 75.92 37.4 24.8
12/12/2004 15:55 75.22 38.22 26.2
12/12/2004 16:25 73.84 41.68 31.4
12/12/2004 16:55 70.39 44.48 39.3
12/12/2004 17:25 66.28 45.48 47
12/12/2004 17:55 62.85 46.84 55.8
12/12/2004 18:25 62.17 46.68 56.8
12/12/2004 18:55 60.11 46.84 61.5
12/12/2004 19:25 59.42 47.5 64.6
12/12/2004 19:55 58.04 47.4 67.6
12/12/2004 20:25 57.35 47.7 70.1
12/12/2004 20:55 56.66 47.64 71.7
12/12/2004 21:25 55.28 47.72 75.6
12/12/2004 21:55 55.97 47.3 72.6
12/12/2004 22:25 55.28 47.18 74.1
12/12/2004 22:55 55.28 47.18 74.1
12/12/2004 23:25 54.58 46.34 73.6
12/12/2004 23:55 53.19 46.68 78.5
12/13/2004 0:25 53.19 46.68 78.5
12/13/2004 0:55 52.49 46.18 79
12/13/2004 1:25 52.49 45.36 76.6
12/13/2004 1:55 51.79 44.34 75.6
12/13/2004 2:25 51.79 43.46 73.1
12/13/2004 2:55 51.08 43.66 75.6
12/13/2004 3:25 51.79 41.8 68.6
12/13/2004 3:55 49.67 42.46 76.1
12/13/2004 4:25 50.38 40.46 68.6
12/13/2004 4:55 51.08 40.38 66.6
12/13/2004 5:25 51.08 38.12 61
12/13/2004 5:55 53.89 33.84 46.4
12/13/2004 6:25 57.35 34.08 41.3
12/13/2004 6:55 58.73 32.44 36.8
12/13/2004 7:25 59.42 33.72 37.8
12/13/2004 7:55 62.17 34.08 34.8
12/13/2004 8:25 64.22 35.16 33.8
12/13/2004 8:55 65.59 36.36 33.8
12/13/2004 9:25 67.65 39.64 35.8
12/13/2004 9:55 69.71 38.48 31.9
12/13/2004 10:25 71.08 38.46 30.4
12/13/2004 10:55 72.46 37.64 28.1
12/13/2004 11:25 73.84 37.9 27.1
12/13/2004 11:55 74.53 39.42 28.1
12/13/2004 12:25 74.53 38.48 27.1
12/13/2004 12:55 75.22 38.7 26.7
12/13/2004 13:25 75.22 38.7 26.7
12/13/2004 13:55 74.53 38.48 27.1
12/13/2004 14:25 74.53 38.48 27.1
12/13/2004 14:55 73.84 38.36 27.6
12/13/2004 15:25 73.15 38.58 28.5
12/13/2004 15:55 71.77 39.04 30.4
12/13/2004 16:25 70.39 39.88 32.9
12/13/2004 16:55 68.33 40.6 36.3
12/13/2004 17:25 66.96 39.74 36.8
12/13/2004 17:55 66.28 39.46 37.3
12/13/2004 18:25 66.28 36.58 33.3
12/13/2004 18:55 65.59 35.3 32.4
12/13/2004 19:25 64.91 35.76 33.8
12/13/2004 19:55 64.91 36.14 34.3
12/13/2004 20:25 64.22 35.16 33.8
12/13/2004 20:55 64.91 33.92 31.4
12/13/2004 21:25 62.85 35.04 35.3
12/13/2004 21:55 62.85 35.04 35.3
12/13/2004 22:25 62.17 34.44 35.3
12/13/2004 22:55 60.8 35.26 38.3
12/13/2004 23:25 60.11 35.3 39.3
12/13/2004 23:55 58.73 35.62 41.8
12/14/2004 0:25 60.11 34.66 38.3
12/14/2004 0:55 61.48 35.54 37.8
12/14/2004 1:25 60.8 38.14 42.9
12/14/2004 1:55 60.8 39.86 45.9
12/14/2004 2:25 59.42 38.04 44.9
12/14/2004 2:55 58.73 37.98 45.9
12/14/2004 3:25 62.85 35.4 35.8
12/14/2004 3:55 60.8 36.54 40.3
12/14/2004 4:25 55.97 38.18 51.1
12/14/2004 4:55 56.66 38.82 51.1
12/14/2004 5:25 58.73 37.14 44.4
12/14/2004 5:55 56.66 37.22 48
12/14/2004 6:25 55.97 38.18 51.1
12/14/2004 6:55 53.89 37.98 54.7
12/14/2004 7:25 53.89 38.94 56.8
12/14/2004 7:55 57.35 36.16 44.9
12/14/2004 8:25 63.54 34.56 33.8
12/14/2004 8:55 66.96 30.34 25.3
12/14/2004 9:25 69.02 30.68 23.9
12/14/2004 9:55 69.02 31.58 24.8
12/14/2004 10:25 70.39 30.44 22.6
12/14/2004 10:55 71.77 27.98 19.5
12/14/2004 11:25 72.46 28.56 19.5
12/14/2004 11:55 73.84 28.14 18.3
12/14/2004 12:25 74.53 27.62 17.5
12/14/2004 12:55 74.53 25.76 16.2
12/14/2004 13:25 75.22 29.26 18.3
12/14/2004 13:55 74.53 30.88 20
12/14/2004 14:25 74.53 28.7 18.3
12/14/2004 14:55 74.53 27.62 17.5
12/14/2004 15:25 74.53 28.7 18.3
12/14/2004 15:55 71.77 35.76 26.7
12/14/2004 16:25 71.08 33.32 24.8
12/14/2004 16:55 68.33 36.48 30.9
12/14/2004 17:25 65.59 41.16 40.8
12/14/2004 17:55 63.54 42.36 45.9
12/14/2004 18:25 62.17 41.72 47
12/14/2004 18:55 62.17 40.82 45.4
12/14/2004 19:25 61.48 41.36 47.5
12/14/2004 19:55 60.8 41.28 48.5
12/14/2004 20:25 60.8 41.02 48
12/14/2004 20:55 61.48 37.78 41.3
12/14/2004 21:25 61.48 36.84 39.8
12/14/2004 21:55 59.42 37.76 44.4
12/14/2004 22:25 59.42 36.54 42.3
12/14/2004 22:55 58.04 34.38 40.8
12/14/2004 23:25 58.73 33.42 38.3
12/14/2004 23:55 59.42 34.36 38.8
12/15/2004 0:25 60.11 33.32 36.3
12/15/2004 0:55 58.73 33.1 37.8
12/15/2004 1:25 58.73 32.76 37.3
12/15/2004 1:55 58.04 33.46 39.3
12/15/2004 2:25 59.42 31.66 34.8
12/15/2004 2:55 61.48 29.4 29.5
12/15/2004 3:25 62.17 27.56 26.7
12/15/2004 3:55 62.17 27.1 26.2
12/15/2004 4:25 60.8 27.2 27.6
12/15/2004 4:55 62.17 27.92 27.1
12/15/2004 5:25 61.48 27.78 27.6
12/15/2004 5:55 61.48 27.78 27.6
12/15/2004 6:25 60.8 27.62 28.1
12/15/2004 6:55 60.8 27.96 28.5
12/15/2004 7:25 58.73 29.98 33.3
12/15/2004 7:55 59.42 31.3 34.3
12/15/2004 8:25 62.17 31.52 31.4
12/15/2004 8:55 64.22 31.34 29
12/15/2004 9:25 65.59 31.3 27.6
12/15/2004 9:55 66.96 30.72 25.7
12/15/2004 10:25 67.65 28.58 23
12/15/2004 10:55 69.71 29.32 22.1
12/15/2004 11:25 69.71 26.3 19.5
12/15/2004 11:55 69.71 26.9 20
12/15/2004 12:25 70.39 28.42 20.8
12/15/2004 12:55 70.39 28.42 20.8
12/15/2004 13:25 70.39 30.44 22.6
12/15/2004 13:55 69.71 30.84 23.5
12/15/2004 14:25 69.71 31.24 23.9
12/15/2004 14:55 69.02 32.08 25.3
12/15/2004 15:25 67.65 33.06 27.6
12/15/2004 15:55 66.96 32.02 27.1
12/15/2004 16:25 66.28 32.34 28.1
12/15/2004 16:55 64.22 32.52 30.4
12/15/2004 17:25 63.54 31.92 30.4
12/15/2004 17:55 63.54 33.12 31.9
12/15/2004 18:25 62.17 33.36 33.8
12/15/2004 18:55 62.17 33.36 33.8
12/15/2004 19:25 62.17 35.48 36.8
12/15/2004 19:55 60.8 34.26 36.8
12/15/2004 20:25 60.11 34.66 38.3
12/15/2004 20:55 60.8 36.24 39.8
12/15/2004 21:25 60.11 36.24 40.8
12/15/2004 21:55 58.04 36.52 44.4
12/15/2004 22:25 56.66 35.26 44.4
12/15/2004 22:55 58.04 34.08 40.3
12/15/2004 23:25 58.04 32.16 37.3
12/15/2004 23:55 60.8 28.4 29
12/16/2004 0:25 60.8 27.2 27.6
12/16/2004 0:55 62.17 23.98 23
12/16/2004 1:25 61.48 23 22.6
12/16/2004 1:55 60.11 25.36 26.2
12/16/2004 2:25 60.8 25.1 25.3
12/16/2004 2:55 60.8 25.48 25.7
12/16/2004 3:25 60.11 22.26 23
12/16/2004 3:55 61.48 20.58 20.4
12/16/2004 4:25 60.11 22.26 23
12/16/2004 4:55 60.8 21.46 21.7
12/16/2004 5:25 60.11 21.32 22.1
12/16/2004 5:55 60.8 18.96 19.5
12/16/2004 6:25 60.11 18.98 20
12/16/2004 6:55 59.42 18.86 20.4
12/16/2004 7:25 60.11 20.88 21.7
12/16/2004 7:55 60.8 22.82 23
12/16/2004 8:25 60.8 24.62 24.8
12/16/2004 8:55 62.17 24.9 23.9
12/16/2004 9:25 63.54 26.56 24.4
12/16/2004 9:55 63.54 25.64 23.5
12/16/2004 10:25 64.22 25.28 22.6
12/16/2004 10:55 64.22 25.28 22.6
12/16/2004 11:25 64.91 23.88 20.8
12/16/2004 11:55 64.91 24.44 21.3
12/16/2004 12:25 63.54 22.28 20.4
12/16/2004 12:55 64.22 22.84 20.4
12/16/2004 13:25 62.85 21.72 20.4
12/16/2004 13:55 62.85 21.24 20
12/16/2004 14:25 62.85 22.18 20.8
12/16/2004 14:55 63.54 19.22 17.9
12/16/2004 15:25 62.85 19.16 18.3
12/16/2004 15:55 62.17 19.6 19.1
12/16/2004 16:25 60.8 20 20.4
12/16/2004 16:55 60.11 20.44 21.3
12/16/2004 17:25 59.42 20.3 21.7
12/16/2004 17:55 59.42 22.58 23.9
12/16/2004 18:25 59.42 21.26 22.6
12/16/2004 18:55 59.42 19.88 21.3
12/16/2004 19:25 59.42 19.32 20.8
12/16/2004 19:55 59.42 18.86 20.4
12/16/2004 20:25 60.11 17.9 19.1
12/16/2004 20:55 60.8 16.98 17.9
12/16/2004 21:25 60.8 17.48 18.3
12/16/2004 21:55 60.11 18.38 19.5
12/16/2004 22:25 60.11 18.98 20
12/16/2004 22:55 60.11 18.98 20
12/16/2004 23:25 60.11 19.44 20.4
12/16/2004 23:55 59.42 19.32 20.8
12/17/2004 0:25 59.42 21.26 22.6
12/17/2004 0:55 59.42 22.58 23.9
12/17/2004 1:25 58.73 23.34 25.3
12/17/2004 1:55 58.04 24.84 27.6
12/17/2004 2:25 57.35 25 28.5
12/17/2004 2:55 56.66 26.74 31.4
12/17/2004 3:25 56.66 27.86 32.9
12/17/2004 3:55 55.97 27.54 33.3
12/17/2004 4:25 55.97 27.26 32.9
12/17/2004 4:55 55.97 27.26 32.9
12/17/2004 5:25 55.28 28 34.8
12/17/2004 5:55 55.28 26.94 33.3
12/17/2004 6:25 55.28 26.94 33.3
12/17/2004 6:55 54.58 27.4 34.8
12/17/2004 7:25 55.28 27.66 34.3
12/17/2004 7:55 55.28 27.66 34.3
12/17/2004 8:25 55.97 27.54 33.3
12/17/2004 8:55 57.35 27.72 31.9
12/17/2004 9:25 58.04 27.16 30.4
12/17/2004 9:55 58.73 25.86 28.1
12/17/2004 10:25 59.42 25.22 26.7
12/17/2004 10:55 60.11 25.8 26.7
12/17/2004 11:25 60.11 25.8 26.7
12/17/2004 11:55 59.42 25.58 27.1
12/17/2004 12:25 60.11 25.36 26.2
12/17/2004 12:55 60.8 25.1 25.3
12/17/2004 13:25 60.8 22.82 23
12/17/2004 13:55 61.48 21.04 20.8
12/17/2004 14:25 61.48 20.58 20.4
12/17/2004 14:55 60.8 20.46 20.8
12/17/2004 15:25 60.11 17.9 19.1
12/17/2004 15:55 60.11 17.42 18.7
12/17/2004 16:25 60.11 14.7 16.6
12/17/2004 16:55 58.73 17.26 19.5
12/17/2004 17:25 58.04 18.72 21.3
12/17/2004 17:55 58.04 17.26 20
12/17/2004 18:25 58.73 16.78 19.1
12/17/2004 18:55 58.73 17.84 20
12/17/2004 19:25 58.04 17.72 20.4
12/17/2004 19:55 58.04 17.72 20.4
12/17/2004 20:25 58.04 18.18 20.8
12/17/2004 20:55 58.04 17.72 20.4
12/17/2004 21:25 57.35 17.16 20.4
12/17/2004 21:55 57.35 17.16 20.4
12/17/2004 22:25 57.35 16.7 20
12/17/2004 22:55 58.04 14.72 17.9
12/17/2004 23:25 57.35 12.46 16.6
12/17/2004 23:55 57.35 12.46 16.6
12/18/2004 0:25 57.35 11.34 15.8
12/18/2004 0:55 57.35 10.18 15
12/18/2004 1:25 57.35 8.5 13.9
12/18/2004 1:55 58.04 8.4 13.5
12/18/2004 2:25 58.04 7.74 13.1
12/18/2004 2:55 58.04 7.06 12.7
12/18/2004 3:25 58.04 7.06 12.7
12/18/2004 3:55 58.04 5.82 12
12/18/2004 4:25 58.04 5.82 12
12/18/2004 4:55 58.04 4.52 11.3
12/18/2004 5:25 58.73 6.36 12
12/18/2004 5:55 58.04 7.74 13.1
12/18/2004 6:25 58.04 6.54 12.4
12/18/2004 6:55 57.35 6.52 12.7
12/18/2004 7:25 56.66 8.58 14.3
12/18/2004 7:55 57.35 9.58 14.6
12/18/2004 8:25 59.42 7.62 12.4
12/18/2004 8:55 60.8 7.96 12
12/18/2004 9:25 60.8 9.22 12.7
12/18/2004 9:55 60.8 9.92 13.1
12/18/2004 10:25 62.17 9.76 12.4
12/18/2004 10:55 63.54 9.36 11.6
12/18/2004 11:25 62.85 11.54 13.1
12/18/2004 11:55 63.54 12.76 13.5
12/18/2004 12:25 64.22 10.64 12
12/18/2004 12:55 64.91 11.18 12
12/18/2004 13:25 66.96 12.02 11.6
12/18/2004 13:55 66.28 9.26 10.5
12/18/2004 14:25 65.59 13.7 13.1
12/18/2004 14:55 64.91 12.46 12.7
12/18/2004 15:25 63.54 12.76 13.5
12/18/2004 15:55 63.54 12.08 13.1
12/18/2004 16:25 62.17 12.32 13.9
12/18/2004 16:55 61.48 9.76 12.7
12/18/2004 17:25 60.8 12.94 15
12/18/2004 17:55 60.8 11.88 14.3
12/18/2004 18:25 60.11 14.14 16.2
12/18/2004 18:55 60.11 13.56 15.8
12/18/2004 19:25 60.8 13.54 15.4
12/18/2004 19:55 60.11 12.4 15
12/18/2004 20:25 60.8 11.88 14.3
12/18/2004 20:55 60.8 11.24 13.9
12/18/2004 21:25 60.8 10.58 13.5
12/18/2004 21:55 60.8 11.24 13.9
12/18/2004 22:25 60.8 12.34 14.6
12/18/2004 22:55 60.8 12.94 15
12/18/2004 23:25 60.11 13.56 15.8
12/18/2004 23:55 58.04 14.72 17.9
12/19/2004 0:25 58.04 15.22 18.3
12/19/2004 0:55 56.66 15.54 19.5
12/19/2004 1:25 57.35 14.66 18.3
12/19/2004 1:55 55.97 15.54 20
12/19/2004 2:25 54.58 16.68 22.1
12/19/2004 2:55 55.97 14.98 19.5
12/19/2004 3:25 58.04 14.22 17.5
12/19/2004 3:55 57.35 15.16 18.7
12/19/2004 4:25 54.58 16.68 22.1
12/19/2004 4:55 60.8 14.7 16.2
12/19/2004 5:25 60.8 14.7 16.2
12/19/2004 5:55 60.8 14.12 15.8
12/19/2004 6:25 60.8 14.7 16.2
12/19/2004 6:55 60.8 14.7 16.2
12/19/2004 7:25 61.48 14.1 15.4
12/19/2004 7:55 62.17 14.64 15.4
12/19/2004 8:25 61.48 14.68 15.8
12/19/2004 8:55 62.17 14.04 15
12/19/2004 9:25 62.17 14.64 15.4
12/19/2004 9:55 64.22 14.6 14.3
12/19/2004 10:25 64.22 15.7 15
12/19/2004 10:55 64.91 16.84 15.4
12/19/2004 11:25 66.96 16.12 13.9
12/19/2004 11:55 66.96 17.26 14.6
12/19/2004 12:25 66.96 16.78 14.3
12/19/2004 12:55 66.96 17.88 15
12/19/2004 13:25 67.65 17.32 14.3
12/19/2004 13:55 66.96 18.48 15.4
12/19/2004 14:25 67.65 17.8 14.6
12/19/2004 14:55 68.33 18.98 15
12/19/2004 15:25 67.65 18.42 15
12/19/2004 15:55 66.28 23.48 19.5
12/19/2004 16:25 64.91 23.88 20.8
12/19/2004 16:55 62.17 22.6 21.7
12/19/2004 17:25 60.8 21.02 21.3
12/19/2004 17:55 60.11 22.26 23
12/19/2004 18:25 59.42 23.46 24.8
12/19/2004 18:55 59.42 21.68 23
12/19/2004 19:25 59.42 21.68 23
12/19/2004 19:55 58.73 21.1 23
12/19/2004 20:25 58.73 21.1 23
12/19/2004 20:55 55.97 22.26 26.7
12/19/2004 21:25 53.19 22.94 30.4
12/19/2004 21:55 51.08 23.96 34.3
12/19/2004 22:25 49.67 24.38 36.8
12/19/2004 22:55 48.96 24.38 37.8
12/19/2004 23:25 48.25 24.06 38.3
12/19/2004 23:55 47.53 25.8 42.3
12/20/2004 0:25 46.82 25.76 43.4
12/20/2004 0:55 47.53 23.74 38.8
12/20/2004 1:25 47.53 23.74 38.8
12/20/2004 1:55 47.53 23.42 38.3
12/20/2004 2:25 46.82 23.1 38.8
12/20/2004 2:55 46.82 24 40.3
12/20/2004 3:25 47.53 21.84 35.8
12/20/2004 3:55 46.82 22.16 37.3
12/20/2004 4:25 45.38 23.56 41.8
12/20/2004 4:55 46.1 22.46 38.8
12/20/2004 5:25 46.1 22.76 39.3
12/20/2004 5:55 46.1 22.46 38.8
12/20/2004 6:25 46.1 21.52 37.3
12/20/2004 6:55 46.1 22.46 38.8
12/20/2004 7:25 44.65 24.34 44.4
12/20/2004 7:55 46.82 23.7 39.8
12/20/2004 8:25 49.67 25.34 38.3
12/20/2004 8:55 55.28 22.02 27.1
12/20/2004 9:25 60.8 18.96 19.5
12/20/2004 9:55 62.17 17.58 17.5
12/20/2004 10:25 64.22 13.96 13.9
12/20/2004 10:55 66.28 10.9 11.3
12/20/2004 11:25 67.65 10.32 10.5
12/20/2004 11:55 69.02 12.22 10.9
12/20/2004 12:25 70.39 12.42 10.5
12/20/2004 12:55 71.08 12.3 10.2
12/20/2004 13:25 71.08 12.3 10.2
12/20/2004 13:55 71.08 12.96 10.5
12/20/2004 14:25 71.77 12.82 10.2
12/20/2004 14:55 71.08 15.22 11.6
12/20/2004 15:25 70.39 15.46 12
12/20/2004 15:55 69.71 16.92 13.1
12/20/2004 16:25 68.33 20.18 15.8
12/20/2004 16:55 64.91 22.34 19.5
12/20/2004 17:25 61.48 23.92 23.5
12/20/2004 17:55 58.73 24.98 27.1
12/20/2004 18:25 55.97 26.12 31.4
12/20/2004 18:55 54.58 28.74 36.8
12/20/2004 19:25 52.49 29.4 40.8
12/20/2004 19:55 51.79 30.28 43.4
12/20/2004 20:25 51.08 31.6 47
12/20/2004 20:55 48.96 31.22 50.1
12/20/2004 21:25 48.96 31.94 51.6
12/20/2004 21:55 48.25 32.28 53.7
12/20/2004 22:25 47.53 32.56 55.8
12/20/2004 22:55 46.82 32.54 57.3
12/20/2004 23:25 46.1 32.56 58.9
12/20/2004 23:55 45.38 32.94 61.5
12/21/2004 0:25 45.38 34.18 64.6
12/21/2004 0:55 43.92 34.28 68.6
12/21/2004 1:25 43.92 35.04 70.7
12/21/2004 1:55 43.92 36.4 74.6
12/21/2004 2:25 43.92 37.84 79
12/21/2004 2:55 43.19 37.58 80.4
12/21/2004 3:25 41.72 36.7 82.2
12/21/2004 3:55 41.72 38.06 86.7
12/21/2004 4:25 41.72 38.06 86.7
12/21/2004 4:55 41.72 38.06 86.7
12/21/2004 5:25 40.97 37.32 86.7
12/21/2004 5:55 40.97 38.44 90.6
12/21/2004 6:25 43.92 42.78 95.7
12/21/2004 6:55 45.38 44.52 96.8
12/21/2004 7:25 46.1 45.46 97.6
12/21/2004 7:55 46.82 45.54 95.3
12/21/2004 8:25 48.25 45.98 91.8
12/21/2004 8:55 49.67 46.54 88.9
12/21/2004 9:25 51.08 46.46 84.1
12/21/2004 9:55 51.79 46.42 81.8
12/21/2004 10:25 52.49 46.48 79.9
12/21/2004 10:55 53.19 46.86 79
12/21/2004 11:25 54.58 46.16 73.1
12/21/2004 11:55 54.58 46.34 73.6
12/21/2004 12:25 54.58 45.78 72.1
12/21/2004 12:55 55.97 45.62 68.1
12/21/2004 13:25 56.66 45.08 65.1
12/21/2004 13:55 55.97 44.24 64.6
12/21/2004 14:25 56.66 45.68 66.6
12/21/2004 14:55 58.04 42.36 55.8
12/21/2004 15:25 58.04 44.22 59.9
12/21/2004 15:55 57.35 43.78 60.4
12/21/2004 16:25 55.97 43.78 63.5
12/21/2004 16:55 53.89 43.44 67.6
12/21/2004 17:25 52.49 42.86 69.6
12/21/2004 17:55 51.08 42.6 72.6
12/21/2004 18:25 48.25 41.4 77
12/21/2004 18:55 47.53 41.66 79.9
12/21/2004 19:25 47.53 41.66 79.9
12/21/2004 19:55 46.82 41.68 82.2
12/21/2004 20:25 46.1 41.98 85.4
12/21/2004 20:55 47.53 45.04 91
12/21/2004 21:25 47.53 45.5 92.6
12/21/2004 21:55 47.53 45.84 93.8
12/21/2004 22:25 48.25 46.44 93.4
12/21/2004 22:55 48.25 46.54 93.8
12/21/2004 23:25 47.53 45.62 93
12/21/2004 23:55 45.38 43.36 92.6
12/22/2004 0:25 44.65 43.2 94.6
12/22/2004 0:55 46.82 44.22 90.6
12/22/2004 1:25 44.65 42.54 92.2
12/22/2004 1:55 43.92 41.92 92.6
12/22/2004 2:25 43.19 41.2 92.6
12/22/2004 2:55 43.19 39.76 87.6
12/22/2004 3:25 58.04 22.76 25.3
12/22/2004 3:55 58.73 22.48 24.4
12/22/2004 4:25 58.04 22.28 24.8
12/22/2004 4:55 55.28 24.04 29.5
12/22/2004 5:25 51.08 26.28 37.8
12/22/2004 5:55 53.19 25.1 33.3
12/22/2004 6:25 55.28 24.04 29.5
12/22/2004 6:55 55.28 23.22 28.5
12/22/2004 7:25 55.97 23.82 28.5
12/22/2004 7:55 55.97 18.78 23
12/22/2004 8:25 57.35 11.34 15.8
12/22/2004 8:55 58.04 8.4 13.5
12/22/2004 9:25 58.73 5.04 11.3
12/22/2004 9:55 59.42 6.9 12
12/22/2004 10:25 59.42 4.8 10.9
12/22/2004 10:55 59.42 4 10.5
12/22/2004 11:25 59.42 1.84 9.5
12/22/2004 11:55 59.42 3.36 10.2
12/22/2004 12:25 59.42 2.5 9.8
12/22/2004 12:55 58.73 6.36 12
12/22/2004 13:25 58.73 11.3 15
12/22/2004 13:55 58.73 13.02 16.2
12/22/2004 14:25 58.73 16.78 19.1
12/22/2004 14:55 58.73 19.74 21.7
12/22/2004 15:25 58.04 18.72 21.3
12/22/2004 15:55 55.97 13.02 17.9
12/22/2004 16:25 55.28 16.42 21.3
12/22/2004 16:55 53.19 19.44 26.2
12/22/2004 17:25 52.49 25.2 34.3
12/22/2004 17:55 51.79 22.86 31.9
12/22/2004 18:25 51.79 20.6 29
12/22/2004 18:55 51.79 20.6 29
12/22/2004 19:25 51.08 21.86 31.4
12/22/2004 19:55 51.08 25.32 36.3
12/22/2004 20:25 50.38 19.78 29.5
12/22/2004 20:55 50.38 20.88 30.9
12/22/2004 21:25 50.38 21.62 31.9
12/22/2004 21:55 49.67 21.72 32.9
12/22/2004 22:25 49.67 21 31.9
12/22/2004 22:55 48.96 18.56 29.5
12/22/2004 23:25 48.25 17.54 29
12/22/2004 23:55 48.25 15.22 26.2
12/23/2004 0:25 47.53 14.16 25.7
12/23/2004 0:55 46.82 13.98 26.2
12/23/2004 1:25 47.53 12.98 24.4
12/23/2004 1:55 48.25 9.58 20.4
12/23/2004 2:25 46.82 10.16 22.1
12/23/2004 2:55 46.82 7.94 20
12/23/2004 3:25 47.53 7.06 18.7
12/23/2004 3:55 47.53 6.6 18.3
12/23/2004 4:25 48.25 3.44 15.4
12/23/2004 4:55 48.25 1.84 14.3
12/23/2004 5:25 48.25 1.84 14.3
12/23/2004 5:55 48.25 2.86 15
12/23/2004 6:25 46.82 5.02 17.5
12/23/2004 6:55 48.25 2.28 14.6
12/23/2004 7:25 49.67 2.38 13.9
12/23/2004 7:55 49.67 2.38 13.9
12/23/2004 8:25 50.38 2.94 13.9
12/23/2004 8:55 51.79 2.12 12.7
12/23/2004 9:25 53.89 3.78 12.7
12/23/2004 9:55 53.19 3.22 12.7
12/23/2004 10:25 53.89 4.44 13.1
12/23/2004 10:55 55.28 4.36 12.4
12/23/2004 11:25 55.97 4.9 12.4
12/23/2004 11:55 56.66 4.74 12
12/23/2004 12:25 56.66 5.96 12.7
12/23/2004 12:55 57.35 9.58 14.6
12/23/2004 13:25 55.97 10.22 15.8
12/23/2004 13:55 55.97 13.02 17.9
12/23/2004 14:25 55.28 15.88 20.8
12/23/2004 14:55 55.28 18.68 23.5
12/23/2004 15:25 54.58 20.64 26.2
12/23/2004 15:55 54.58 18.48 23.9
12/23/2004 16:25 53.19 18.62 25.3
12/23/2004 16:55 51.79 18.68 26.7
12/23/2004 17:25 51.08 15.52 23.9
12/23/2004 17:55 51.79 5.72 15
12/23/2004 18:25 51.79 6.28 15.4
12/23/2004 18:55 50.38 4.58 15
12/23/2004 19:25 49.67 6.22 16.6
12/23/2004 19:55 49.67 6.22 16.6
12/23/2004 20:25 48.96 7.76 18.3
12/23/2004 20:55 48.25 3.44 15.4
12/23/2004 21:25 48.25 -1.86 12
12/23/2004 21:55 47.53 -1.74 12.4
12/23/2004 22:25 46.82 -1.82 12.7
12/23/2004 22:55 46.82 -1.16 13.1
12/23/2004 23:25 46.82 0.1 13.9
12/23/2004 23:55 46.82 0.7 14.3
12/24/2004 0:25 46.82 1.72 15
12/24/2004 0:55 46.1 4.92 17.9
12/24/2004 1:25 46.1 7.78 20.4
12/24/2004 1:55 45.38 8.94 22.1
12/24/2004 2:25 45.38 8.54 21.7
12/24/2004 2:55 45.38 5.28 18.7
12/24/2004 3:25 44.65 4.22 18.3
12/24/2004 3:55 44.65 4.68 18.7
12/24/2004 4:25 44.65 0.52 15.4
12/24/2004 4:55 44.65 -0.6 14.6
12/24/2004 5:25 43.92 -1.64 14.3
12/24/2004 5:55 43.92 -1.64 14.3
12/24/2004 6:25 43.92 -3.46 13.1
12/24/2004 6:55 43.19 -1.78 14.6
12/24/2004 7:25 43.92 1.52 16.6
12/24/2004 7:55 43.92 3.62 18.3
12/24/2004 8:25 45.38 8.14 21.3
12/24/2004 8:55 46.1 7.78 20.4
12/24/2004 9:25 46.82 3.88 16.6
12/24/2004 9:55 47.53 0.04 13.5
12/24/2004 10:25 48.25 -2.58 11.6
12/24/2004 10:55 48.25 -1.18 12.4
12/24/2004 11:25 48.96 -0.62 12.4
12/24/2004 11:55 49.67 -4.98 9.8
12/24/2004 12:25 49.67 -4.14 10.2
12/24/2004 12:55 50.38 -4.44 9.8
12/24/2004 13:25 51.79 -6.28 8.5
12/24/2004 13:55 51.08 -15.16 5.6
12/24/2004 14:25 51.08 -14.14 5.9
12/24/2004 14:55 51.79 -8.84 7.5
12/24/2004 15:25 51.08 -9.36 7.5
12/24/2004 15:55 51.08 -8.58 7.8
12/24/2004 16:25 50.38 -3.6 10.2
12/24/2004 16:55 47.53 8.98 20.4
12/24/2004 17:25 46.82 13.2 25.3
12/24/2004 17:55 46.1 12.14 24.8
12/24/2004 18:25 46.1 11.76 24.4
12/24/2004 18:55 46.1 3.3 16.6
12/24/2004 19:25 46.1 -4.8 11.3
12/24/2004 19:55 47.53 -8.14 9.1
12/24/2004 20:25 46.82 -8.68 9.1
12/24/2004 20:55 46.82 -7.18 9.8
12/24/2004 21:25 46.82 -5.76 10.5
12/24/2004 21:55 46.1 -3.56 12
12/24/2004 22:25 45.38 -5.38 11.3
12/24/2004 22:55 45.38 -5.38 11.3
12/24/2004 23:25 43.92 -1.64 14.3
12/24/2004 23:55 44.65 -2.26 13.5
12/25/2004 0:25 46.1 -2.38 12.7
12/25/2004 0:55 46.1 -2.88 12.4
12/25/2004 1:25 46.1 -0.48 13.9
12/25/2004 1:55 46.1 4.44 17.5
12/25/2004 2:25 46.82 5.02 17.5
12/25/2004 2:55 45.38 6.2 19.5
12/25/2004 3:25 46.1 10.92 23.5
12/25/2004 3:55 46.82 15.9 28.5
12/25/2004 4:25 46.1 16.76 30.4
12/25/2004 4:55 46.1 17.88 31.9
12/25/2004 5:25 45.38 19.26 34.8
12/25/2004 5:55 46.1 17.5 31.4
12/25/2004 6:25 46.82 16.3 29
12/25/2004 6:55 46.82 18.14 31.4
12/25/2004 7:25 46.82 18.14 31.4
12/25/2004 7:55 48.25 16.82 28.1
12/25/2004 8:25 48.96 17.02 27.6
12/25/2004 8:55 50.38 16.24 25.3
12/25/2004 9:25 52.49 13.1 20.4
12/25/2004 9:55 53.19 3.9 13.1
12/25/2004 10:25 54.58 2.38 11.6
12/25/2004 10:55 55.97 -1.7 9.1
12/25/2004 11:25 58.04 -0.12 9.1
12/25/2004 11:55 58.73 -0.3 8.8
12/25/2004 12:25 59.42 -1.54 8.1
12/25/2004 12:55 60.8 1.26 8.8
12/25/2004 13:25 60.11 3.04 9.8
12/25/2004 13:55 60.8 5.86 10.9
12/25/2004 14:25 60.8 6.66 11.3
12/25/2004 14:55 60.11 4.52 10.5
12/25/2004 15:25 60.11 5.34 10.9
12/25/2004 15:55 58.73 6.36 12
12/25/2004 16:25 58.73 7.6 12.7
12/25/2004 16:55 55.97 8.02 14.3
12/25/2004 17:25 53.19 7.98 15.8
12/25/2004 17:55 51.08 10.92 19.5
12/25/2004 18:25 51.08 12.38 20.8
12/25/2004 18:55 50.38 11.36 20.4
12/25/2004 19:25 48.96 12.46 22.6
12/25/2004 19:55 48.25 12.26 23
12/25/2004 20:25 47.53 12.52 23.9
12/25/2004 20:55 47.53 11.26 22.6
12/25/2004 21:25 44.65 13.7 28.1
12/25/2004 21:55 43.92 13.8 29
12/25/2004 22:25 42.46 15.04 32.4
12/25/2004 22:55 43.92 13.4 28.5
12/25/2004 23:25 43.92 13.4 28.5
12/25/2004 23:55 43.92 12.68 27.6
12/26/2004 0:25 46.1 10.44 23
12/26/2004 0:55 46.82 9.34 21.3
12/26/2004 1:25 45.38 10.32 23.5
12/26/2004 1:55 42.46 12.9 29.5
12/26/2004 2:25 43.92 11.08 25.7
12/26/2004 2:55 44.65 10.54 24.4
12/26/2004 3:25 42.46 13.28 30
12/26/2004 3:55 41.72 13.68 31.4
12/26/2004 4:25 40.23 15.34 35.8
12/26/2004 4:55 40.23 15.02 35.3
12/26/2004 5:25 39.48 16.22 38.3
12/26/2004 5:55 40.23 17.18 38.8
12/26/2004 6:25 39.48 17.1 39.8
12/26/2004 6:55 39.48 15.92 37.8
12/26/2004 7:25 38.72 18.16 42.9
12/26/2004 7:55 39.48 18.24 41.8
12/26/2004 8:25 43.92 16.32 32.4
12/26/2004 8:55 49.67 15.98 25.7
12/26/2004 9:25 51.08 18.08 26.7
12/26/2004 9:55 53.89 8.54 15.8
12/26/2004 10:25 55.97 9.08 15
12/26/2004 10:55 58.04 12.46 16.2
12/26/2004 11:25 58.73 10.68 14.6
12/26/2004 11:55 60.8 12.34 14.6
12/26/2004 12:25 60.8 14.12 15.8
12/26/2004 12:55 60.8 13.54 15.4
12/26/2004 13:25 60.8 12.94 15
12/26/2004 13:55 61.48 18.04 18.3
12/26/2004 14:25 60.11 29.34 30.9
12/26/2004 14:55 58.73 29.68 32.9
12/26/2004 15:25 57.35 28.76 33.3
12/26/2004 15:55 56.66 31.58 38.3
12/26/2004 16:25 56.66 26.34 30.9
12/26/2004 16:55 54.58 28.08 35.8
12/26/2004 17:25 53.19 28.8 38.8
12/26/2004 17:55 52.49 29.1 40.3
12/26/2004 18:25 51.79 30.28 43.4
12/26/2004 18:55 51.79 37.46 57.9
12/26/2004 19:25 51.79 39.2 62
12/26/2004 19:55 51.08 39.4 64.1
12/26/2004 20:25 51.08 40.76 67.6
12/26/2004 20:55 50.38 40.84 69.6
12/26/2004 21:25 49.67 41.06 72.1
12/26/2004 21:55 48.96 41.6 75.6
12/26/2004 22:25 48.25 42.06 79
12/26/2004 22:55 48.25 42.52 80.4
12/26/2004 23:25 48.25 42.96 81.8
12/26/2004 23:55 47.53 42.38 82.2
12/27/2004 0:25 48.25 43.52 83.6
12/27/2004 0:55 48.25 43.4 83.2
12/27/2004 1:25 48.25 43.24 82.7
12/27/2004 1:55 48.25 42.52 80.4
12/27/2004 2:25 47.53 42.26 81.8
12/27/2004 2:55 47.53 42.26 81.8
12/27/2004 3:25 46.82 41.68 82.2
12/27/2004 3:55 47.53 42.38 82.2
12/27/2004 4:25 47.53 42.82 83.6
12/27/2004 4:55 48.25 45.02 88.5
12/27/2004 5:25 48.25 45.98 91.8
12/27/2004 5:55 48.25 45.98 91.8
12/27/2004 6:25 48.25 46.32 93
12/27/2004 6:55 48.96 47.02 93
12/27/2004 7:25 48.25 46.32 93
12/27/2004 7:55 49.67 47.96 93.8
12/27/2004 8:25 50.38 48.32 92.6
12/27/2004 8:55 49.67 47.16 91
12/27/2004 9:25 50.38 48.2 92.2
12/27/2004 9:55 51.79 47.56 85.4
12/27/2004 10:25 53.89 46.02 74.6
12/27/2004 10:55 56.66 46.08 67.6
12/27/2004 11:25 55.97 45.42 67.6
12/27/2004 11:55 57.35 45.54 64.6
12/27/2004 12:25 58.73 45.08 60.4
12/27/2004 12:55 58.73 45.34 61
12/27/2004 13:25 59.42 45.72 60.4
12/27/2004 13:55 58.73 45.34 61
12/27/2004 14:25 57.35 44.68 62.5
12/27/2004 14:55 57.35 44.26 61.5
12/27/2004 15:25 58.73 45.34 61
12/27/2004 15:55 57.35 46.34 66.6
12/27/2004 16:25 56.66 46.28 68.1
12/27/2004 16:55 55.28 47 73.6
12/27/2004 17:25 53.89 47.36 78.5
12/27/2004 17:55 54.58 48.04 78.5
12/27/2004 18:25 54.58 48.34 79.4
12/27/2004 18:55 53.89 48.6 82.2
12/27/2004 19:25 54.58 49.6 83.2
12/27/2004 19:55 54.58 49.44 82.7
12/27/2004 20:25 53.89 48.92 83.2
12/27/2004 20:55 54.58 49.28 82.2
12/27/2004 21:25 53.89 48.6 82.2
12/27/2004 21:55 53.19 48.92 85.4
12/27/2004 22:25 53.89 50.02 86.7
12/27/2004 22:55 53.89 50.02 86.7
12/27/2004 23:25 53.89 50.18 87.2
12/27/2004 23:55 53.89 49.9 86.3
12/28/2004 0:25 53.89 49.04 83.6
12/28/2004 0:55 53.89 49.62 85.4
12/28/2004 1:25 53.89 50.18 87.2
12/28/2004 1:55 53.89 50.42 88
12/28/2004 2:25 53.19 50.52 90.6
12/28/2004 2:55 53.89 50.82 89.3
12/28/2004 3:25 53.19 51.22 93
12/28/2004 3:55 52.49 50.52 93
12/28/2004 4:25 53.19 51.22 93
12/28/2004 4:55 52.49 51.18 95.3
12/28/2004 5:25 52.49 51.6 96.8
12/28/2004 5:55 52.49 51.92 97.9
12/28/2004 6:25 52.49 52.1 98.6
12/28/2004 6:55 52.49 52.3 99.3
12/28/2004 7:25 53.19 53.18 100.3
12/28/2004 7:55 54.58 54.58 101
12/28/2004 8:25 54.58 54.58 100.6
12/28/2004 8:55 54.58 54.58 100.3
12/28/2004 9:25 54.58 54.58 100.6
12/28/2004 9:55 55.97 55.98 101.6
12/28/2004 10:25 56.66 56.66 101.6
12/28/2004 10:55 56.66 56.66 101.3
12/28/2004 11:25 56.66 56.66 101
12/28/2004 11:55 56.66 56.66 101
12/28/2004 12:25 56.66 56.66 101.3
12/28/2004 12:55 56.66 56.66 101
12/28/2004 13:25 57.35 57.36 101
12/28/2004 13:55 57.35 57.36 100
12/28/2004 14:25 57.35 57.36 101.3
12/28/2004 14:55 57.35 57.36 101.6
12/28/2004 15:25 57.35 57.36 101.9
12/28/2004 15:55 57.35 57.36 102.2
12/28/2004 16:25 57.35 57.36 102.2
12/28/2004 16:55 57.35 57.36 102.5
12/28/2004 17:25 56.66 56.66 102.5
12/28/2004 17:55 56.66 56.66 102.8
12/28/2004 18:25 56.66 56.66 102.8
12/28/2004 18:55 56.66 56.66 103.1
12/28/2004 19:25 55.97 55.98 103.1
12/28/2004 19:55 55.97 55.98 103.4
12/28/2004 20:25 55.28 55.28 103.4
12/28/2004 20:55 55.28 55.28 103.4
12/28/2004 21:25 55.28 55.28 103.4
12/28/2004 21:55 55.28 55.28 103.7
12/28/2004 22:25 55.97 55.98 103.7
12/28/2004 22:55 55.97 55.98 104
12/28/2004 23:25 56.66 56.66 104
12/28/2004 23:55 57.35 57.36 104
12/29/2004 0:25 58.04 58.04 104
12/29/2004 0:55 58.04 58.04 104
12/29/2004 1:25 58.04 58.04 104
12/29/2004 1:55 58.73 58.74 104
12/29/2004 2:25 58.73 58.74 104
12/29/2004 2:55 58.73 58.74 104
12/29/2004 3:25 59.42 59.42 104
12/29/2004 3:55 59.42 59.42 104
12/29/2004 4:25 59.42 59.42 104
12/29/2004 4:55 57.35 57.36 104
12/29/2004 5:25 55.97 55.98 104
12/29/2004 5:55 55.97 55.98 104
12/29/2004 6:25 55.28 55.28 104
12/29/2004 6:55 55.28 55.28 104
12/29/2004 7:25 54.58 54.58 104
12/29/2004 7:55 54.58 54.58 104
12/29/2004 8:25 55.28 55.28 104
12/29/2004 8:55 55.28 55.28 104
12/29/2004 9:25 55.28 55.28 104
12/29/2004 9:55 55.97 55.98 104
12/29/2004 10:25 58.04 58.04 104
12/29/2004 10:55 58.04 58.04 104
12/29/2004 11:25 59.42 59.42 104
12/29/2004 11:55 60.8 56.82 86.7
12/29/2004 12:25 60.11 54.36 81.3
12/29/2004 12:55 60.8 54.86 80.8
12/29/2004 13:25 60.8 54.86 80.8
12/29/2004 13:55 59.42 54.92 85
12/29/2004 14:25 58.73 54.66 86.3
12/29/2004 14:55 59.42 53.06 79.4
12/29/2004 15:25 58.04 54.38 87.6
12/29/2004 15:55 58.04 52.18 80.8
12/29/2004 16:25 57.35 52.3 83.2
12/29/2004 16:55 55.97 52.88 89.3
12/29/2004 17:25 55.28 53.88 95
12/29/2004 17:55 55.28 52.94 91.8
12/29/2004 18:25 54.58 52.84 93.8
12/29/2004 18:55 53.89 52.38 94.6
12/29/2004 19:25 53.19 52 95.7
12/29/2004 19:55 52.49 51.92 97.9
12/29/2004 20:25 52.49 52.02 98.3
12/29/2004 20:55 53.19 52.62 97.9
12/29/2004 21:25 52.49 51.1 95
12/29/2004 21:55 51.79 51.12 97.6
12/29/2004 22:25 51.08 50.7 98.6
12/29/2004 22:55 51.08 50.82 99
12/29/2004 23:25 50.38 50.28 99.6
12/29/2004 23:55 49.67 49.68 100
12/30/2004 0:25 48.96 48.96 100.3
12/30/2004 0:55 48.25 48.24 100.6
12/30/2004 1:25 48.25 48.06 99.3
12/30/2004 1:55 47.53 46.98 97.9
12/30/2004 2:25 47.53 47.16 98.6
12/30/2004 2:55 46.1 45.92 99.3
12/30/2004 3:25 44.65 44.66 100
12/30/2004 3:55 43.92 43.92 100
12/30/2004 4:25 43.19 43.2 100.3
12/30/2004 4:55 42.46 42.46 100
12/30/2004 5:25 42.46 42.46 100.6
12/30/2004 5:55 42.46 42.46 100.3
12/30/2004 6:25 41.72 41.72 100.6
12/30/2004 6:55 41.72 41.72 101
12/30/2004 7:25 41.72 41.72 101.3
12/30/2004 7:55 43.19 43.2 101.6
12/30/2004 8:25 45.38 45.38 101.6
12/30/2004 8:55 48.25 47.8 98.3
12/30/2004 9:25 51.79 44.98 77.5
12/30/2004 9:55 53.19 45.86 76.1
12/30/2004 10:25 54.58 45.46 71.2
12/30/2004 10:55 55.97 45.42 67.6
12/30/2004 11:25 58.73 45.08 60.4
12/30/2004 11:55 59.42 43.88 56.3
12/30/2004 12:25 60.11 42.24 51.6
12/30/2004 12:55 62.85 41.44 45.4
12/30/2004 13:25 62.85 42.02 46.4
12/30/2004 13:55 64.22 44.14 48
12/30/2004 14:25 64.22 43.6 47
12/30/2004 14:55 64.91 43.6 45.9
12/30/2004 15:25 63.54 38.36 39.3
12/30/2004 15:55 63.54 40.9 43.4
12/30/2004 16:25 62.17 40.82 45.4
12/30/2004 16:55 60.8 42.64 51.1
12/30/2004 17:25 56.66 45.3 65.6
12/30/2004 17:55 54.58 47.22 76.1
12/30/2004 18:25 53.19 48.92 85.4
12/30/2004 18:55 53.19 47.32 80.4
12/30/2004 19:25 51.08 48.16 89.7
12/30/2004 19:55 50.38 48.54 93.4
12/30/2004 20:25 48.96 47.78 95.7
12/30/2004 20:55 48.96 48.02 96.5
12/30/2004 21:25 48.25 47.38 96.8
12/30/2004 21:55 47.53 46.9 97.6
12/30/2004 22:25 46.82 46.26 97.9
12/30/2004 22:55 46.82 46.56 99
12/30/2004 23:25 46.1 45.84 99
12/30/2004 23:55 45.38 45.2 99.3
12/31/2004 0:25 44.65 44.54 99.6
12/31/2004 0:55 44.65 44.66 100.6
12/31/2004 1:25 43.92 43.92 100.6
12/31/2004 1:55 43.19 43.2 100
12/31/2004 2:25 43.19 43.2 100.6
12/31/2004 2:55 42.46 42.46 101
12/31/2004 3:25 42.46 42.46 101
12/31/2004 3:55 42.46 42.46 101
12/31/2004 4:25 42.46 42.46 101.6
12/31/2004 4:55 42.46 42.46 101.9
12/31/2004 5:25 42.46 42.46 101.9
12/31/2004 5:55 43.92 43.92 102.2
12/31/2004 6:25 44.65 44.66 102.2
12/31/2004 6:55 44.65 44.66 102.5
12/31/2004 7:25 44.65 44.66 102.5
12/31/2004 7:55 44.65 44.66 102.2
12/31/2004 8:25 45.38 45.38 102.5
12/31/2004 8:55 45.38 45.38 102.2
12/31/2004 9:25 46.1 46.1 100.6
12/31/2004 9:55 46.82 46.56 99
12/31/2004 10:25 48.96 45.44 87.6
12/31/2004 10:55 50.38 45.9 84.5
12/31/2004 11:25 53.19 45.7 75.6
12/31/2004 11:55 53.89 45.48 73.1
12/31/2004 12:25 54.58 45.46 71.2
12/31/2004 12:55 53.89 45.3 72.6
12/31/2004 13:25 54.58 45.46 71.2
12/31/2004 13:55 55.28 44.18 66.1
12/31/2004 14:25 55.97 43.78 63.5
12/31/2004 14:55 55.97 45.02 66.6
12/31/2004 15:25 55.97 45.22 67.1
12/31/2004 15:55 55.28 45.14 68.6
12/31/2004 16:25 54.58 44.28 68.1
12/31/2004 16:55 52.49 44.32 73.6
12/31/2004 17:25 51.79 45.32 78.5
12/31/2004 17:55 49.67 45.36 85
12/31/2004 18:25 48.96 45.18 86.7
12/31/2004 18:55 48.25 44.36 86.3
12/31/2004 19:25 47.53 44.92 90.6
12/31/2004 19:55 46.82 44.9 93
12/31/2004 20:25 46.1 44.64 94.6
12/31/2004 20:55 45.38 44.44 96.5
12/31/2004 21:25 44.65 44.1 97.9
12/31/2004 21:55 43.92 43.66 99
12/31/2004 22:25 44.65 44.46 99.3
12/31/2004 22:55 45.38 45.12 99
12/31/2004 23:25 45.38 45.12 99
12/31/2004 23:55 44.65 44.38 99